sensor_id;sensor_type;location;lat;lon;timestamp;pressure;altitude;pressure_sealevel;temperature;humidity
34742;BME280;20968;42.696;23.360;2023-04-08T00:02:21;95349.03;;;8.88;55.35
34742;BME280;20968;42.696;23.360;2023-04-08T00:04:46;95349.22;;;8.84;55.72
34742;BME280;20968;42.696;23.360;2023-04-08T00:07:11;95349.53;;;8.86;54.96
34742;BME280;20968;42.696;23.360;2023-04-08T00:09:37;95348.31;;;8.87;55.65
34742;BME280;20968;42.696;23.360;2023-04-08T00:12:02;95350.44;;;8.83;56.03
34742;BME280;20968;42.696;23.360;2023-04-08T00:14:28;95352.59;;;8.79;56.18
34742;BME280;20968;42.696;23.360;2023-04-08T00:16:53;95353.81;;;8.78;55.16
34742;BME280;20968;42.696;23.360;2023-04-08T00:19:18;95342.84;;;8.78;55.32
34742;BME280;20968;42.696;23.360;2023-04-08T00:21:44;95348.63;;;8.80;55.51
34742;BME280;20968;42.696;23.360;2023-04-08T00:24:09;95348.00;;;8.76;55.39
34742;BME280;20968;42.696;23.360;2023-04-08T00:26:35;95347.28;;;8.76;55.47
34742;BME280;20968;42.696;23.360;2023-04-08T00:29:00;95344.06;;;8.68;55.08
34742;BME280;20968;42.696;23.360;2023-04-08T00:31:25;95342.53;;;8.67;56.33
34742;BME280;20968;42.696;23.360;2023-04-08T00:33:51;95339.97;;;8.64;55.37
34742;BME280;20968;42.696;23.360;2023-04-08T00:36:16;95344.09;;;8.59;55.65
34742;BME280;20968;42.696;23.360;2023-04-08T00:38:41;95343.97;;;8.54;56.56
34742;BME280;20968;42.696;23.360;2023-04-08T00:41:07;95345.78;;;8.39;57.42
34742;BME280;20968;42.696;23.360;2023-04-08T00:43:32;95346.59;;;8.22;57.60
34742;BME280;20968;42.696;23.360;2023-04-08T00:45:57;95352.53;;;8.20;57.90
34742;BME280;20968;42.696;23.360;2023-04-08T00:48:22;95345.53;;;8.19;57.13
34742;BME280;20968;42.696;23.360;2023-04-08T00:50:48;95348.72;;;8.27;57.08
34742;BME280;20968;42.696;23.360;2023-04-08T00:53:14;95353.56;;;8.14;57.72
34742;BME280;20968;42.696;23.360;2023-04-08T00:55:41;95351.59;;;8.14;58.38
34742;BME280;20968;42.696;23.360;2023-04-08T00:58:06;95349.31;;;8.22;57.43
34742;BME280;20968;42.696;23.360;2023-04-08T01:00:32;95352.38;;;8.24;57.96
34742;BME280;20968;42.696;23.360;2023-04-08T01:03:07;95360.59;;;8.24;57.97
34742;BME280;20968;42.696;23.360;2023-04-08T01:08:08;95354.22;;;8.27;57.96
34742;BME280;20968;42.696;23.360;2023-04-08T01:10:36;95351.00;;;8.28;59.02
34742;BME280;20968;42.696;23.360;2023-04-08T01:13:07;95354.22;;;8.27;58.26
34742;BME280;20968;42.696;23.360;2023-04-08T01:15:34;95352.53;;;8.29;58.87
34742;BME280;20968;42.696;23.360;2023-04-08T01:18:00;95360.28;;;8.31;58.81
34742;BME280;20968;42.696;23.360;2023-04-08T01:20:30;95357.56;;;8.31;58.26
34742;BME280;20968;42.696;23.360;2023-04-08T01:25:33;95352.38;;;8.33;59.17
34742;BME280;20968;42.696;23.360;2023-04-08T01:28:02;95350.38;;;8.24;58.52
34742;BME280;20968;42.696;23.360;2023-04-08T01:30:28;95354.66;;;8.25;58.86
34742;BME280;20968;42.696;23.360;2023-04-08T01:32:54;95357.41;;;8.25;59.00
34742;BME280;20968;42.696;23.360;2023-04-08T01:35:20;95354.50;;;8.29;58.76
34742;BME280;20968;42.696;23.360;2023-04-08T01:37:47;95356.34;;;8.32;59.52
34742;BME280;20968;42.696;23.360;2023-04-08T01:40:13;95350.38;;;8.33;58.47
34742;BME280;20968;42.696;23.360;2023-04-08T01:42:39;95351.00;;;8.28;59.56
34742;BME280;20968;42.696;23.360;2023-04-08T01:45:05;95355.59;;;8.22;58.38
34742;BME280;20968;42.696;23.360;2023-04-08T01:47:31;95355.28;;;8.20;58.01
34742;BME280;20968;42.696;23.360;2023-04-08T01:49:58;95363.66;;;8.17;58.20
34742;BME280;20968;42.696;23.360;2023-04-08T01:52:24;95354.97;;;8.18;58.91
34742;BME280;20968;42.696;23.360;2023-04-08T01:54:50;95357.09;;;8.14;57.79
34742;BME280;20968;42.696;23.360;2023-04-08T01:57:18;95363.03;;;8.04;58.85
34742;BME280;20968;42.696;23.360;2023-04-08T01:59:47;95361.50;;;8.03;58.75
34742;BME280;20968;42.696;23.360;2023-04-08T02:02:14;95368.19;;;8.02;58.42
34742;BME280;20968;42.696;23.360;2023-04-08T02:04:41;95375.81;;;7.98;58.66
34742;BME280;20968;42.696;23.360;2023-04-08T02:07:06;95382.22;;;8.04;58.26
34742;BME280;20968;42.696;23.360;2023-04-08T02:09:31;95377.81;;;8.06;57.96
34742;BME280;20968;42.696;23.360;2023-04-08T02:11:57;95383.88;;;8.10;57.93
34742;BME280;20968;42.696;23.360;2023-04-08T02:14:22;95390.44;;;8.13;58.69
34742;BME280;20968;42.696;23.360;2023-04-08T02:19:14;95393.94;;;8.13;58.82
34742;BME280;20968;42.696;23.360;2023-04-08T02:21:46;95388.91;;;8.03;59.67
34742;BME280;20968;42.696;23.360;2023-04-08T02:24:12;95385.88;;;8.01;59.12
34742;BME280;20968;42.696;23.360;2023-04-08T02:26:39;95386.63;;;8.01;59.77
34742;BME280;20968;42.696;23.360;2023-04-08T02:29:06;95388.47;;;8.04;60.04
34742;BME280;20968;42.696;23.360;2023-04-08T02:31:35;95385.41;;;8.02;60.31
34742;BME280;20968;42.696;23.360;2023-04-08T02:34:03;95383.28;;;7.97;60.31
34742;BME280;20968;42.696;23.360;2023-04-08T02:36:32;95379.94;;;7.93;60.60
34742;BME280;20968;42.696;23.360;2023-04-08T02:38:59;95381.75;;;7.87;60.28
34742;BME280;20968;42.696;23.360;2023-04-08T02:41:27;95375.81;;;7.89;60.05
34742;BME280;20968;42.696;23.360;2023-04-08T02:43:52;95385.53;;;7.90;60.97
34742;BME280;20968;42.696;23.360;2023-04-08T02:46:19;95379.16;;;7.93;60.37
34742;BME280;20968;42.696;23.360;2023-04-08T02:48:45;95379.78;;;7.97;60.47
34742;BME280;20968;42.696;23.360;2023-04-08T02:51:10;95381.13;;;8.01;60.64
34742;BME280;20968;42.696;23.360;2023-04-08T02:53:37;95382.66;;;8.02;60.99
34742;BME280;20968;42.696;23.360;2023-04-08T02:56:02;95383.75;;;8.05;60.33
34742;BME280;20968;42.696;23.360;2023-04-08T02:58:27;95369.25;;;8.04;60.19
34742;BME280;20968;42.696;23.360;2023-04-08T03:00:53;95375.22;;;8.03;60.51
34742;BME280;20968;42.696;23.360;2023-04-08T03:03:18;95382.53;;;7.97;61.36
34742;BME280;20968;42.696;23.360;2023-04-08T03:05:43;95385.88;;;8.01;61.27
34742;BME280;20968;42.696;23.360;2023-04-08T03:08:08;95385.88;;;8.01;60.72
34742;BME280;20968;42.696;23.360;2023-04-08T03:10:34;95381.44;;;8.03;60.89
34742;BME280;20968;42.696;23.360;2023-04-08T03:12:59;95382.06;;;7.89;61.44
34742;BME280;20968;42.696;23.360;2023-04-08T03:15:25;95379.47;;;7.86;60.90
34742;BME280;20968;42.696;23.360;2023-04-08T03:17:50;95384.78;;;7.89;61.97
34742;BME280;20968;42.696;23.360;2023-04-08T03:20:15;95379.63;;;7.91;61.20
34742;BME280;20968;42.696;23.360;2023-04-08T03:22:40;95373.06;;;7.89;61.52
34742;BME280;20968;42.696;23.360;2023-04-08T03:25:06;95369.56;;;7.88;62.26
34742;BME280;20968;42.696;23.360;2023-04-08T03:27:31;95379.47;;;7.95;61.69
34742;BME280;20968;42.696;23.360;2023-04-08T03:29:57;95382.53;;;7.97;61.45
34742;BME280;20968;42.696;23.360;2023-04-08T03:32:22;95378.84;;;8.00;61.23
34742;BME280;20968;42.696;23.360;2023-04-08T03:34:48;95382.81;;;7.99;61.51
34742;BME280;20968;42.696;23.360;2023-04-08T03:37:15;95380.84;;;7.99;61.36
34742;BME280;20968;42.696;23.360;2023-04-08T03:39:42;95391.97;;;8.05;61.67
34742;BME280;20968;42.696;23.360;2023-04-08T03:42:07;95382.22;;;8.04;61.66
34742;BME280;20968;42.696;23.360;2023-04-08T03:44:32;95387.25;;;8.05;61.91
34742;BME280;20968;42.696;23.360;2023-04-08T03:46:57;95395.78;;;8.07;61.27
34742;BME280;20968;42.696;23.360;2023-04-08T03:49:23;95387.72;;;8.04;61.95
34742;BME280;20968;42.696;23.360;2023-04-08T03:51:48;95382.66;;;8.02;61.13
34742;BME280;20968;42.696;23.360;2023-04-08T03:54:14;95386.34;;;7.99;61.54
34742;BME280;20968;42.696;23.360;2023-04-08T03:56:39;95385.28;;;7.97;61.47
34742;BME280;20968;42.696;23.360;2023-04-08T03:59:05;95389.53;;;7.89;62.29
34742;BME280;20968;42.696;23.360;2023-04-08T04:01:30;95377.94;;;7.85;62.15
34742;BME280;20968;42.696;23.360;2023-04-08T04:03:56;95377.03;;;7.88;61.78
34742;BME280;20968;42.696;23.360;2023-04-08T04:06:23;95376.09;;;7.91;62.30
34742;BME280;20968;42.696;23.360;2023-04-08T04:08:48;95379.59;;;7.82;62.54
34742;BME280;20968;42.696;23.360;2023-04-08T04:11:14;95375.94;;;7.76;62.33
34742;BME280;20968;42.696;23.360;2023-04-08T04:13:39;95378.53;;;7.80;61.87
34742;BME280;20968;42.696;23.360;2023-04-08T04:16:06;95377.34;;;7.81;60.96
34742;BME280;20968;42.696;23.360;2023-04-08T04:18:31;95378.84;;;7.82;61.60
34742;BME280;20968;42.696;23.360;2023-04-08T04:20:58;95389.81;;;7.82;60.95
34742;BME280;20968;42.696;23.360;2023-04-08T04:23:24;95388.75;;;7.88;60.32
34742;BME280;20968;42.696;23.360;2023-04-08T04:25:50;95397.88;;;7.94;60.61
34742;BME280;20968;42.696;23.360;2023-04-08T04:28:16;95395.31;;;8.00;59.88
34742;BME280;20968;42.696;23.360;2023-04-08T04:30:41;95400.63;;;8.03;59.29
34742;BME280;20968;42.696;23.360;2023-04-08T04:33:07;95401.69;;;8.06;59.39
34742;BME280;20968;42.696;23.360;2023-04-08T04:35:33;95399.75;;;8.06;60.31
34742;BME280;20968;42.696;23.360;2023-04-08T04:38:02;95396.84;;;8.10;60.40
34742;BME280;20968;42.696;23.360;2023-04-08T04:40:29;95403.06;;;8.10;60.37
34742;BME280;20968;42.696;23.360;2023-04-08T04:42:55;95398.06;;;8.09;59.84
34742;BME280;20968;42.696;23.360;2023-04-08T04:45:23;95396.22;;;8.06;60.33
34742;BME280;20968;42.696;23.360;2023-04-08T04:47:48;95401.28;;;8.07;59.78
34742;BME280;20968;42.696;23.360;2023-04-08T04:50:14;95394.09;;;8.10;60.58
34742;BME280;20968;42.696;23.360;2023-04-08T04:52:46;95396.25;;;8.15;59.62
34742;BME280;20968;42.696;23.360;2023-04-08T04:55:12;95395.03;;;8.16;59.61
34742;BME280;20968;42.696;23.360;2023-04-08T04:57:39;95400.84;;;8.18;59.46
34742;BME280;20968;42.696;23.360;2023-04-08T05:00:21;95398.69;;;8.22;60.14
34742;BME280;20968;42.696;23.360;2023-04-08T05:02:48;95399.75;;;8.24;58.93
34742;BME280;20968;42.696;23.360;2023-04-08T05:05:16;95403.59;;;8.27;59.67
34742;BME280;20968;42.696;23.360;2023-04-08T05:08:04;95408.59;;;8.28;58.25
34742;BME280;20968;42.696;23.360;2023-04-08T05:10:33;95406.19;;;8.21;58.78
34742;BME280;20968;42.696;23.360;2023-04-08T05:13:05;95403.28;;;8.16;58.75
34742;BME280;20968;42.696;23.360;2023-04-08T05:15:32;95403.59;;;8.27;57.88
34742;BME280;20968;42.696;23.360;2023-04-08T05:18:00;95397.78;;;8.25;57.71
34742;BME280;20968;42.696;23.360;2023-04-08T05:20:31;95402.97;;;8.32;57.60
34742;BME280;20968;42.696;23.360;2023-04-08T05:22:57;95400.81;;;8.36;58.25
34742;BME280;20968;42.696;23.360;2023-04-08T05:25:22;95409.38;;;8.47;58.49
34742;BME280;20968;42.696;23.360;2023-04-08T05:27:48;95404.19;;;8.49;58.59
34742;BME280;20968;42.696;23.360;2023-04-08T05:30:19;95401.44;;;8.57;57.61
34742;BME280;20968;42.696;23.360;2023-04-08T05:32:46;95397.44;;;8.58;56.48
34742;BME280;20968;42.696;23.360;2023-04-08T05:35:34;95409.03;;;8.62;57.76
34742;BME280;20968;42.696;23.360;2023-04-08T05:38:26;95412.84;;;8.65;55.86
34742;BME280;20968;42.696;23.360;2023-04-08T05:43:48;95404.78;;;8.61;56.63
34742;BME280;20968;42.696;23.360;2023-04-08T05:46:14;95414.69;;;8.68;57.08
34742;BME280;20968;42.696;23.360;2023-04-08T05:48:40;95409.31;;;8.73;56.82
34742;BME280;20968;42.696;23.360;2023-04-08T05:51:13;95407.19;;;8.68;57.38
34742;BME280;20968;42.696;23.360;2023-04-08T05:53:39;95405.97;;;8.69;57.18
34742;BME280;20968;42.696;23.360;2023-04-08T05:59:10;95398.31;;;8.82;58.14
34742;BME280;20968;42.696;23.360;2023-04-08T06:01:42;95401.69;;;8.86;57.22
34742;BME280;20968;42.696;23.360;2023-04-08T06:04:15;95405.31;;;9.01;57.31
34742;BME280;20968;42.696;23.360;2023-04-08T06:07:03;95405.13;;;9.14;57.72
34742;BME280;20968;42.696;23.360;2023-04-08T06:09:48;95406.16;;;9.25;57.14
34742;BME280;20968;42.696;23.360;2023-04-08T06:12:19;95398.47;;;9.29;56.97
34742;BME280;20968;42.696;23.360;2023-04-08T06:15:07;95399.38;;;9.35;57.65
34742;BME280;20968;42.696;23.360;2023-04-08T06:17:45;95395.84;;;9.43;57.69
34742;BME280;20968;42.696;23.360;2023-04-08T06:20:16;95398.75;;;9.40;58.23
34742;BME280;20968;42.696;23.360;2023-04-08T06:23:02;95399.47;;;9.49;57.80
34742;BME280;20968;42.696;23.360;2023-04-08T06:25:36;95399.00;;;9.51;57.03
34742;BME280;20968;42.696;23.360;2023-04-08T06:28:09;95402.22;;;9.49;57.11
34742;BME280;20968;42.696;23.360;2023-04-08T06:33:33;95399.78;;;9.75;56.58
34742;BME280;20968;42.696;23.360;2023-04-08T06:38:33;95404.63;;;9.80;56.79
34742;BME280;20968;42.696;23.360;2023-04-08T06:41:10;95405.50;;;9.95;56.91
34742;BME280;20968;42.696;23.360;2023-04-08T06:43:37;95406.13;;;9.90;57.06
34742;BME280;20968;42.696;23.360;2023-04-08T06:46:23;95405.88;;;9.79;57.69
34742;BME280;20968;42.696;23.360;2023-04-08T06:48:56;95415.72;;;9.71;57.29
34742;BME280;20968;42.696;23.360;2023-04-08T06:54:17;95411.63;;;9.90;57.94
34742;BME280;20968;42.696;23.360;2023-04-08T06:59:46;95401.34;;;9.99;57.45
34742;BME280;20968;42.696;23.360;2023-04-08T07:02:14;95406.53;;;10.20;57.43
34742;BME280;20968;42.696;23.360;2023-04-08T07:05:00;95403.63;;;10.24;57.41
34742;BME280;20968;42.696;23.360;2023-04-08T07:07:43;95404.13;;;10.37;57.33
34742;BME280;20968;42.696;23.360;2023-04-08T07:10:09;95418.47;;;10.41;56.96
34742;BME280;20968;42.696;23.360;2023-04-08T07:12:37;95409.91;;;10.24;57.08
34742;BME280;20968;42.696;23.360;2023-04-08T07:15:03;95417.56;;;10.20;57.64
34742;BME280;20968;42.696;23.360;2023-04-08T07:17:52;95421.47;;;10.28;57.79
34742;BME280;20968;42.696;23.360;2023-04-08T07:20:26;95414.19;;;10.40;56.99
34742;BME280;20968;42.696;23.360;2023-04-08T07:26:08;95423.38;;;10.37;56.78
34742;BME280;20968;42.696;23.360;2023-04-08T07:28:35;95424.09;;;10.46;57.17
34742;BME280;20968;42.696;23.360;2023-04-08T07:34:08;95425.28;;;10.31;57.27
34742;BME280;20968;42.696;23.360;2023-04-08T07:36:48;95422.75;;;10.42;57.28
34742;BME280;20968;42.696;23.360;2023-04-08T07:39:16;95431.75;;;10.42;57.79
34742;BME280;20968;42.696;23.360;2023-04-08T07:41:45;95432.38;;;10.61;58.22
34742;BME280;20968;42.696;23.360;2023-04-08T07:44:42;95431.97;;;10.53;58.00
34742;BME280;20968;42.696;23.360;2023-04-08T07:47:07;95428.41;;;10.76;57.38
34742;BME280;20968;42.696;23.360;2023-04-08T07:49:39;95429.75;;;10.81;57.12
34742;BME280;20968;42.696;23.360;2023-04-08T07:52:32;95437.66;;;10.87;57.30
34742;BME280;20968;42.696;23.360;2023-04-08T07:54:59;95433.56;;;10.97;56.62
34742;BME280;20968;42.696;23.360;2023-04-08T07:57:26;95443.44;;;11.04;56.77
34742;BME280;20968;42.696;23.360;2023-04-08T07:59:57;95442.13;;;11.14;56.54
34742;BME280;20968;42.696;23.360;2023-04-08T08:02:23;95447.56;;;11.23;56.40
34742;BME280;20968;42.696;23.360;2023-04-08T08:04:50;95446.28;;;11.38;55.23
34742;BME280;20968;42.696;23.360;2023-04-08T08:07:16;95451.44;;;11.45;55.81
34742;BME280;20968;42.696;23.360;2023-04-08T08:09:47;95456.56;;;11.52;55.70
34742;BME280;20968;42.696;23.360;2023-04-08T08:12:17;95455.16;;;11.42;54.71
34742;BME280;20968;42.696;23.360;2023-04-08T08:17:35;95461.88;;;11.84;54.08
34742;BME280;20968;42.696;23.360;2023-04-08T08:20:00;95458.72;;;11.91;54.01
34742;BME280;20968;42.696;23.360;2023-04-08T08:22:35;95452.03;;;11.98;54.25
34742;BME280;20968;42.696;23.360;2023-04-08T08:25:00;95453.84;;;12.01;52.50
34742;BME280;20968;42.696;23.360;2023-04-08T08:27:27;95450.03;;;11.98;53.31
34742;BME280;20968;42.696;23.360;2023-04-08T08:30:02;95444.69;;;12.29;57.63
34742;BME280;20968;42.696;23.360;2023-04-08T08:35:39;95452.28;;;12.74;51.68
34742;BME280;20968;42.696;23.360;2023-04-08T08:38:08;95462.56;;;12.73;52.39
34742;BME280;20968;42.696;23.360;2023-04-08T08:40:34;95455.69;;;12.63;52.36
34742;BME280;20968;42.696;23.360;2023-04-08T08:42:59;95455.94;;;12.45;50.88
34742;BME280;20968;42.696;23.360;2023-04-08T08:45:25;95458.34;;;12.38;52.52
34742;BME280;20968;42.696;23.360;2023-04-08T08:47:51;95458.38;;;12.04;53.24
34742;BME280;20968;42.696;23.360;2023-04-08T08:53:30;95462.75;;;12.10;53.63
34742;BME280;20968;42.696;23.360;2023-04-08T08:55:58;95456.00;;;12.11;54.98
34742;BME280;20968;42.696;23.360;2023-04-08T08:58:27;95456.34;;;11.84;53.69
34742;BME280;20968;42.696;23.360;2023-04-08T09:00:52;95457.72;;;11.60;55.11
34742;BME280;20968;42.696;23.360;2023-04-08T09:03:26;95458.28;;;11.64;54.88
34742;BME280;20968;42.696;23.360;2023-04-08T09:05:59;95466.47;;;11.59;55.41
34742;BME280;20968;42.696;23.360;2023-04-08T09:08:37;95460.56;;;11.37;54.68
34742;BME280;20968;42.696;23.360;2023-04-08T09:13:44;95463.88;;;11.41;56.07
34742;BME280;20968;42.696;23.360;2023-04-08T09:16:15;95462.16;;;11.43;55.85
34742;BME280;20968;42.696;23.360;2023-04-08T09:18:43;95461.34;;;11.52;55.59
34742;BME280;20968;42.696;23.360;2023-04-08T09:21:10;95466.47;;;11.59;54.89
34742;BME280;20968;42.696;23.360;2023-04-08T09:23:46;95460.31;;;11.98;59.29
34742;BME280;20968;42.696;23.360;2023-04-08T09:28:40;95453.88;;;13.56;55.58
34742;BME280;20968;42.696;23.360;2023-04-08T09:31:19;95452.63;;;13.88;55.00
34742;BME280;20968;42.696;23.360;2023-04-08T09:33:46;95456.97;;;14.31;52.11
34742;BME280;20968;42.696;23.360;2023-04-08T09:36:12;95455.41;;;14.24;48.65
34742;BME280;20968;42.696;23.360;2023-04-08T09:38:37;95452.78;;;14.52;51.16
34742;BME280;20968;42.696;23.360;2023-04-08T09:41:03;95449.84;;;14.66;50.10
34742;BME280;20968;42.696;23.360;2023-04-08T09:43:31;95446.63;;;14.78;47.71
34742;BME280;20968;42.696;23.360;2023-04-08T09:45:58;95447.69;;;14.39;47.34
34742;BME280;20968;42.696;23.360;2023-04-08T09:48:31;95449.22;;;14.46;49.57
34742;BME280;20968;42.696;23.360;2023-04-08T09:51:13;95442.25;;;14.67;47.88
34742;BME280;20968;42.696;23.360;2023-04-08T09:53:41;95435.72;;;14.70;48.05
34742;BME280;20968;42.696;23.360;2023-04-08T09:56:10;95432.25;;;14.80;48.24
34742;BME280;20968;42.696;23.360;2023-04-08T10:01:24;95439.47;;;14.56;46.76
34742;BME280;20968;42.696;23.360;2023-04-08T10:03:54;95430.16;;;14.64;47.46
34742;BME280;20968;42.696;23.360;2023-04-08T10:06:26;95427.16;;;14.68;47.62
34742;BME280;20968;42.696;23.360;2023-04-08T10:08:55;95420.66;;;14.87;47.37
34742;BME280;20968;42.696;23.360;2023-04-08T10:11:31;95416.97;;;15.17;46.75
34742;BME280;20968;42.696;23.360;2023-04-08T10:14:08;95420.03;;;15.30;45.45
34742;BME280;20968;42.696;23.360;2023-04-08T10:16:34;95420.03;;;15.25;44.52
34742;BME280;20968;42.696;23.360;2023-04-08T10:18:59;95414.97;;;15.34;45.24
34742;BME280;20968;42.696;23.360;2023-04-08T10:21:31;95408.97;;;15.41;46.07
34742;BME280;20968;42.696;23.360;2023-04-08T10:23:57;95408.69;;;15.39;46.07
34742;BME280;20968;42.696;23.360;2023-04-08T10:26:32;95407.41;;;15.29;46.19
34742;BME280;20968;42.696;23.360;2023-04-08T10:31:45;95402.19;;;14.68;46.63
34742;BME280;20968;42.696;23.360;2023-04-08T10:34:21;95407.47;;;14.55;47.21
34742;BME280;20968;42.696;23.360;2023-04-08T10:36:50;95407.72;;;14.57;46.41
34742;BME280;20968;42.696;23.360;2023-04-08T10:39:15;95408.47;;;14.57;47.82
34742;BME280;20968;42.696;23.360;2023-04-08T10:41:41;95403.53;;;14.83;51.69
34742;BME280;20968;42.696;23.360;2023-04-08T10:44:20;95402.09;;;15.15;51.31
34742;BME280;20968;42.696;23.360;2023-04-08T10:46:46;95406.06;;;14.97;46.13
34742;BME280;20968;42.696;23.360;2023-04-08T10:49:13;95394.78;;;14.43;46.42
34742;BME280;20968;42.696;23.360;2023-04-08T10:51:40;95396.09;;;14.53;46.20
34742;BME280;20968;42.696;23.360;2023-04-08T10:54:06;95392.81;;;14.54;45.98
34742;BME280;20968;42.696;23.360;2023-04-08T10:56:32;95386.25;;;14.41;46.43
34742;BME280;20968;42.696;23.360;2023-04-08T10:58:58;95383.81;;;14.65;46.41
34742;BME280;20968;42.696;23.360;2023-04-08T11:01:24;95388.22;;;15.20;47.85
34742;BME280;20968;42.696;23.360;2023-04-08T11:03:51;95376.91;;;15.67;47.41
34742;BME280;20968;42.696;23.360;2023-04-08T11:06:16;95382.19;;;15.55;45.03
34742;BME280;20968;42.696;23.360;2023-04-08T11:08:42;95369.81;;;15.72;47.14
34742;BME280;20968;42.696;23.360;2023-04-08T11:11:08;95368.06;;;15.74;45.78
34742;BME280;20968;42.696;23.360;2023-04-08T11:13:39;95366.53;;;15.57;45.77
34742;BME280;20968;42.696;23.360;2023-04-08T11:16:07;95369.59;;;15.43;44.18
34742;BME280;20968;42.696;23.360;2023-04-08T11:18:33;95368.59;;;15.40;46.46
34742;BME280;20968;42.696;23.360;2023-04-08T11:20:59;95367.56;;;15.32;44.71
34742;BME280;20968;42.696;23.360;2023-04-08T11:23:25;95355.66;;;14.99;45.19
34742;BME280;20968;42.696;23.360;2023-04-08T11:25:52;95361.72;;;15.08;45.14
34742;BME280;20968;42.696;23.360;2023-04-08T11:28:18;95356.69;;;15.18;43.16
34742;BME280;20968;42.696;23.360;2023-04-08T11:30:43;95354.19;;;15.42;42.16
34742;BME280;20968;42.696;23.360;2023-04-08T11:33:09;95346.84;;;15.71;42.13
34742;BME280;20968;42.696;23.360;2023-04-08T11:35:39;95348.88;;;15.60;40.82
34742;BME280;20968;42.696;23.360;2023-04-08T11:38:05;95340.06;;;15.34;42.22
34742;BME280;20968;42.696;23.360;2023-04-08T11:40:30;95342.84;;;15.56;42.81
34742;BME280;20968;42.696;23.360;2023-04-08T11:42:57;95334.97;;;15.87;42.13
34742;BME280;20968;42.696;23.360;2023-04-08T11:45:22;95333.63;;;16.05;41.90
34742;BME280;20968;42.696;23.360;2023-04-08T11:47:48;95331.13;;;15.96;41.16
34742;BME280;20968;42.696;23.360;2023-04-08T11:50:25;95331.66;;;15.94;39.73
34742;BME280;20968;42.696;23.360;2023-04-08T11:52:53;95325.75;;;16.25;40.89
34742;BME280;20968;42.696;23.360;2023-04-08T11:57:47;95316.59;;;16.41;39.44
34742;BME280;20968;42.696;23.360;2023-04-08T12:00:13;95317.41;;;16.31;39.55
34742;BME280;20968;42.696;23.360;2023-04-08T12:02:38;95313.31;;;16.42;37.95
34742;BME280;20968;42.696;23.360;2023-04-08T12:05:05;95308.47;;;16.48;37.53
34742;BME280;20968;42.696;23.360;2023-04-08T12:07:31;95307.91;;;16.61;38.24
34742;BME280;20968;42.696;23.360;2023-04-08T12:09:57;95313.13;;;16.75;38.31
34742;BME280;20968;42.696;23.360;2023-04-08T12:12:23;95302.41;;;16.90;38.22
34742;BME280;20968;42.696;23.360;2023-04-08T12:14:48;95302.59;;;16.98;38.92
34742;BME280;20968;42.696;23.360;2023-04-08T12:17:14;95312.03;;;16.89;38.64
34742;BME280;20968;42.696;23.360;2023-04-08T12:19:40;95302.97;;;16.83;37.68
34742;BME280;20968;42.696;23.360;2023-04-08T12:22:05;95304.09;;;16.69;38.44
34742;BME280;20968;42.696;23.360;2023-04-08T12:24:30;95308.28;;;16.81;37.79
34742;BME280;20968;42.696;23.360;2023-04-08T12:26:58;95298.41;;;16.45;37.73
34742;BME280;20968;42.696;23.360;2023-04-08T12:29:23;95307.16;;;16.60;38.64
34742;BME280;20968;42.696;23.360;2023-04-08T12:31:48;95301.41;;;16.93;37.20
34742;BME280;20968;42.696;23.360;2023-04-08T12:37:18;95291.38;;;16.34;39.23
34742;BME280;20968;42.696;23.360;2023-04-08T12:39:47;95287.47;;;15.96;39.12
34742;BME280;20968;42.696;23.360;2023-04-08T12:42:13;95288.34;;;15.42;40.32
34742;BME280;20968;42.696;23.360;2023-04-08T12:44:39;95288.84;;;15.13;41.23
34742;BME280;20968;42.696;23.360;2023-04-08T12:47:04;95290.63;;;15.22;41.05
34742;BME280;20968;42.696;23.360;2023-04-08T12:49:33;95290.06;;;14.52;42.04
34742;BME280;20968;42.696;23.360;2023-04-08T12:51:58;95292.00;;;14.30;43.16
34742;BME280;20968;42.696;23.360;2023-04-08T12:54:23;95297.53;;;14.30;43.82
34742;BME280;20968;42.696;23.360;2023-04-08T12:56:48;95297.28;;;14.33;45.61
34742;BME280;20968;42.696;23.360;2023-04-08T12:59:15;95289.78;;;13.87;46.39
34742;BME280;20968;42.696;23.360;2023-04-08T13:01:41;95287.41;;;13.63;46.61
34742;BME280;20968;42.696;23.360;2023-04-08T13:04:06;95303.94;;;13.52;47.38
34742;BME280;20968;42.696;23.360;2023-04-08T13:06:31;95300.78;;;13.34;47.96
34742;BME280;20968;42.696;23.360;2023-04-08T13:08:57;95300.28;;;13.72;47.60
34742;BME280;20968;42.696;23.360;2023-04-08T13:11:22;95295.56;;;13.78;46.47
34742;BME280;20968;42.696;23.360;2023-04-08T13:13:47;95295.75;;;13.69;47.26
34742;BME280;20968;42.696;23.360;2023-04-08T13:16:13;95303.00;;;13.61;46.71
34742;BME280;20968;42.696;23.360;2023-04-08T13:18:40;95306.28;;;13.65;47.58
34742;BME280;20968;42.696;23.360;2023-04-08T13:21:05;95299.53;;;13.71;47.03
34742;BME280;20968;42.696;23.360;2023-04-08T13:23:31;95296.03;;;13.76;46.97
34742;BME280;20968;42.696;23.360;2023-04-08T13:25:57;95304.13;;;13.85;47.04
34742;BME280;20968;42.696;23.360;2023-04-08T13:28:22;95299.81;;;13.73;44.59
34742;BME280;20968;42.696;23.360;2023-04-08T13:30:48;95294.47;;;13.64;46.58
34742;BME280;20968;42.696;23.360;2023-04-08T13:33:13;95294.50;;;13.75;45.02
34742;BME280;20968;42.696;23.360;2023-04-08T13:35:38;95295.81;;;13.85;45.38
34742;BME280;20968;42.696;23.360;2023-04-08T13:38:03;95296.34;;;13.95;45.22
34742;BME280;20968;42.696;23.360;2023-04-08T13:40:29;95289.09;;;13.97;45.19
34742;BME280;20968;42.696;23.360;2023-04-08T13:42:54;95290.44;;;13.71;46.14
34742;BME280;20968;42.696;23.360;2023-04-08T13:45:20;95282.97;;;13.77;49.07
34742;BME280;20968;42.696;23.360;2023-04-08T13:47:45;95281.25;;;13.90;49.70
34742;BME280;20968;42.696;23.360;2023-04-08T13:50:10;95277.13;;;13.69;48.93
34742;BME280;20968;42.696;23.360;2023-04-08T13:52:36;95281.94;;;13.74;49.37
34742;BME280;20968;42.696;23.360;2023-04-08T13:55:01;95281.16;;;13.74;48.95
34742;BME280;20968;42.696;23.360;2023-04-08T13:57:27;95279.38;;;13.65;49.43